createdAt,value
2022-09-17T00:01:22.333Z,74.40
2022-09-17T00:03:52.388Z,74.80
2022-09-17T00:06:21.341Z,74.90
2022-09-17T00:08:49.257Z,74.40
2022-09-17T00:11:20.934Z,74.90
2022-09-17T00:13:51.355Z,74.50
2022-09-17T00:16:25.911Z,74.40
2022-09-17T00:18:54.074Z,75.00
2022-09-17T00:21:22.869Z,75.40
2022-09-17T00:23:54.066Z,75.40
2022-09-17T00:26:22.056Z,75.40
2022-09-17T00:28:53.073Z,75.70
2022-09-17T00:31:21.494Z,75.50
2022-09-17T00:33:49.862Z,75.50
2022-09-17T00:36:18.196Z,75.40
2022-09-17T00:38:48.864Z,75.20
2022-09-17T00:41:16.646Z,75.40
2022-09-17T00:43:46.873Z,75.40
2022-09-17T00:46:30.544Z,74.90
2022-09-17T00:49:00.684Z,75.00
2022-09-17T00:51:35.172Z,75.00
2022-09-17T00:54:05.078Z,74.60
2022-09-17T00:56:35.734Z,75.00
2022-09-17T00:59:04.708Z,75.20
2022-09-17T01:01:34.357Z,75.30
2022-09-17T01:04:05.253Z,75.50
2022-09-17T01:06:38.584Z,75.40
2022-09-17T01:09:29.681Z,75.10
2022-09-17T01:12:26.801Z,75.30
2022-09-17T01:15:09.864Z,74.60
2022-09-17T01:17:53.494Z,75.30
2022-09-17T01:20:54.616Z,76.10
2022-09-17T01:23:47.132Z,76.30
2022-09-17T01:26:32.262Z,76.00
2022-09-17T01:29:08.846Z,75.50
2022-09-17T01:31:44.541Z,75.90
2022-09-17T01:34:21.376Z,75.30
2022-09-17T01:37:04.615Z,75.90
2022-09-17T01:39:39.092Z,75.80
2022-09-17T01:42:15.860Z,75.30
2022-09-17T01:44:50.935Z,74.80
2022-09-17T01:47:23.928Z,75.60
2022-09-17T01:49:56.120Z,75.70
2022-09-17T01:52:26.600Z,75.90
2022-09-17T01:54:59.302Z,75.80
2022-09-17T01:57:32.311Z,76.30
2022-09-17T02:00:03.762Z,74.90
2022-09-17T02:02:45.377Z,75.10
2022-09-17T02:05:19.748Z,74.90
2022-09-17T02:07:53.368Z,75.40
2022-09-17T02:10:24.744Z,74.50
2022-09-17T02:12:57.933Z,75.10
2022-09-17T02:15:30.961Z,75.40
2022-09-17T02:18:04.649Z,75.50
2022-09-17T02:20:40.590Z,75.50
2022-09-17T02:23:15.348Z,75.10
2022-09-17T02:25:49.661Z,75.50
2022-09-17T02:28:25.309Z,75.50
2022-09-17T02:30:53.129Z,75.50
2022-09-17T02:33:23.428Z,75.30
2022-09-17T02:35:51.288Z,75.10
2022-09-17T02:38:25.401Z,75.20
2022-09-17T02:41:04.391Z,75.40
2022-09-17T02:43:39.516Z,75.00
2022-09-17T02:46:22.737Z,75.90
2022-09-17T02:49:23.074Z,75.20
2022-09-17T02:52:01.316Z,75.40
2022-09-17T02:54:35.844Z,75.50
2022-09-17T02:57:14.422Z,75.90
2022-09-17T02:59:51.750Z,75.70
2022-09-17T03:02:24.174Z,75.30
2022-09-17T03:04:55.069Z,75.90
2022-09-17T03:07:24.749Z,75.80
2022-09-17T03:09:52.664Z,75.60
2022-09-17T03:12:20.482Z,75.20
2022-09-17T03:14:48.288Z,75.40
2022-09-17T03:17:16.018Z,76.00
2022-09-17T03:19:44.138Z,75.30
2022-09-17T03:22:12.444Z,75.70
2022-09-17T03:24:41.609Z,75.30
2022-09-17T03:27:09.525Z,75.40
2022-09-17T03:29:37.269Z,75.80
2022-09-17T03:32:05.504Z,75.00
2022-09-17T03:34:33.307Z,75.70
2022-09-17T03:37:01.217Z,75.40
2022-09-17T03:39:29.762Z,75.00
2022-09-17T03:41:58.837Z,75.00
2022-09-17T03:44:26.643Z,74.40
2022-09-17T03:46:54.602Z,74.80
2022-09-17T03:49:23.758Z,75.10
2022-09-17T03:51:51.687Z,74.80
2022-09-17T03:54:19.499Z,75.10
2022-09-17T03:56:47.299Z,74.90
2022-09-17T03:59:16.692Z,74.50
2022-09-17T04:01:44.562Z,74.90
2022-09-17T04:04:12.441Z,75.00
2022-09-17T04:06:40.237Z,74.70
2022-09-17T04:09:08.784Z,75.00
2022-09-17T04:11:36.547Z,74.80
2022-09-17T04:14:04.361Z,74.10
2022-09-17T04:16:33.614Z,74.80
2022-09-17T04:19:01.481Z,74.60
2022-09-17T04:21:29.462Z,74.40
2022-09-17T04:23:57.403Z,74.70
2022-09-17T04:26:25.236Z,74.30
2022-09-17T04:28:53.027Z,75.00
2022-09-17T04:31:22.530Z,73.50
2022-09-17T04:33:51.717Z,73.00
2022-09-17T04:36:19.933Z,73.80
2022-09-17T04:38:49.644Z,73.70
2022-09-17T04:41:17.486Z,74.20
2022-09-17T04:43:45.255Z,74.60
2022-09-17T04:46:14.059Z,72.90
2022-09-17T04:48:41.866Z,73.20
2022-09-17T04:51:11.017Z,73.70
2022-09-17T04:53:39.049Z,72.90
2022-09-17T04:56:07.310Z,73.40
2022-09-17T04:58:35.193Z,73.40
2022-09-17T05:01:02.949Z,73.20
2022-09-17T05:03:31.049Z,73.70
2022-09-17T05:05:58.815Z,72.80
2022-09-17T05:08:27.978Z,72.90
2022-09-17T05:10:56.410Z,73.30
2022-09-17T05:13:24.183Z,72.80
2022-09-17T05:15:52.027Z,73.20
2022-09-17T05:18:19.870Z,72.90
2022-09-17T05:20:47.650Z,72.00
2022-09-17T05:23:15.395Z,72.50
2022-09-17T05:25:44.616Z,73.20
2022-09-17T05:28:12.494Z,72.60
2022-09-17T05:30:40.315Z,73.10
2022-09-17T05:33:09.232Z,72.70
2022-09-17T05:35:37.016Z,73.10
2022-09-17T05:38:07.452Z,73.20
2022-09-17T05:40:35.384Z,72.40
2022-09-17T05:43:06.803Z,72.30
2022-09-17T05:45:35.700Z,72.90
2022-09-17T05:48:04.900Z,72.30
2022-09-17T05:50:33.224Z,72.30
2022-09-17T05:53:06.087Z,71.10
2022-09-17T05:55:35.015Z,71.50
2022-09-17T05:58:10.281Z,71.40
2022-09-17T06:00:38.249Z,71.50
2022-09-17T06:03:06.251Z,71.80
2022-09-17T06:05:34.037Z,72.10
2022-09-17T06:08:01.999Z,72.20
2022-09-17T06:10:29.793Z,71.50
2022-09-17T06:12:57.746Z,70.50
2022-09-17T06:15:28.536Z,70.20
2022-09-17T06:17:56.346Z,70.30
2022-09-17T06:20:24.208Z,70.20
2022-09-17T06:22:57.778Z,71.80
2022-09-17T06:25:27.328Z,72.00
2022-09-17T06:27:55.172Z,69.90
2022-09-17T06:30:22.965Z,71.50
2022-09-17T06:32:52.091Z,71.50
2022-09-17T06:35:20.410Z,71.20
2022-09-17T06:37:48.657Z,71.00
2022-09-17T06:40:16.625Z,70.60
2022-09-17T06:42:44.612Z,71.00
2022-09-17T06:45:16.607Z,70.60
2022-09-17T06:47:44.880Z,69.70
2022-09-17T06:50:14.051Z,70.10
2022-09-17T06:52:49.023Z,69.90
2022-09-17T06:55:17.317Z,70.70
2022-09-17T06:57:45.316Z,70.20
2022-09-17T07:00:14.668Z,70.00
2022-09-17T07:02:42.641Z,69.40
2022-09-17T07:05:10.774Z,69.80
2022-09-17T07:07:40.741Z,68.80
2022-09-17T07:10:09.453Z,69.40
2022-09-17T07:12:42.389Z,69.30
2022-09-17T07:15:15.729Z,69.00
2022-09-17T07:17:44.316Z,68.90
2022-09-17T07:20:13.066Z,68.70
2022-09-17T07:22:42.415Z,69.60
2022-09-17T07:25:10.716Z,68.40
2022-09-17T07:27:38.807Z,68.00
2022-09-17T07:30:07.787Z,67.50
2022-09-17T07:32:35.632Z,67.40
2022-09-17T07:35:03.516Z,66.80
2022-09-17T07:37:31.322Z,66.70
2022-09-17T07:40:00.497Z,65.70
2022-09-17T07:42:28.321Z,63.60
2022-09-17T07:45:01.226Z,63.20
2022-09-17T07:47:29.729Z,60.90
2022-09-17T07:49:57.652Z,61.00
2022-09-17T07:52:25.599Z,62.30
2022-09-17T07:54:53.334Z,62.30
2022-09-17T07:57:22.412Z,62.30
2022-09-17T07:59:50.298Z,61.80
2022-09-17T08:02:23.254Z,61.50
2022-09-17T08:04:51.988Z,62.30
2022-09-17T08:07:19.739Z,60.40
2022-09-17T08:09:47.524Z,62.30
2022-09-17T08:12:15.324Z,60.90
2022-09-17T08:14:44.513Z,62.60
2022-09-17T08:17:12.905Z,62.00
2022-09-17T08:19:40.687Z,61.80
2022-09-17T08:22:08.478Z,60.70
2022-09-17T08:24:36.218Z,61.10
2022-09-17T08:27:04.174Z,61.40
2022-09-17T08:29:35.103Z,60.70
2022-09-17T08:32:04.967Z,57.80
2022-09-17T08:34:32.733Z,59.50
2022-09-17T08:37:00.477Z,58.90
2022-09-17T08:39:29.496Z,59.40
2022-09-17T08:42:08.169Z,59.30
2022-09-17T08:44:42.165Z,59.80
2022-09-17T08:47:18.267Z,60.10
2022-09-17T08:49:51.625Z,58.10
2022-09-17T08:52:58.095Z,60.00
2022-09-17T08:55:34.843Z,59.30
2022-09-17T08:58:20.849Z,58.70
2022-09-17T09:00:55.799Z,57.30
2022-09-17T09:03:37.181Z,56.60
2022-09-17T09:06:10.534Z,57.90
2022-09-17T09:08:43.041Z,58.10
2022-09-17T09:11:16.197Z,58.60
2022-09-17T09:13:47.577Z,59.10
2022-09-17T09:16:18.031Z,57.90
2022-09-17T09:18:51.627Z,58.10
2022-09-17T09:21:27.813Z,58.70
2022-09-17T09:23:58.904Z,56.40
2022-09-17T09:26:40.307Z,58.60
2022-09-17T09:29:20.109Z,57.80
2022-09-17T09:32:16.298Z,56.40
2022-09-17T09:34:48.569Z,56.90
2022-09-17T09:37:22.154Z,57.90
2022-09-17T09:39:53.969Z,58.70
2022-09-17T09:42:30.092Z,57.90
2022-09-17T09:45:05.378Z,57.90
2022-09-17T09:47:50.996Z,57.80
2022-09-17T09:50:54.697Z,56.20
2022-09-17T09:53:29.946Z,56.20
2022-09-17T09:56:13.019Z,54.70
2022-09-17T09:58:42.086Z,55.10
2022-09-17T10:01:14.492Z,54.70
2022-09-17T10:03:45.840Z,55.20
2022-09-17T10:06:15.877Z,55.60
2022-09-17T10:09:01.299Z,55.90
2022-09-17T10:11:33.010Z,55.50
2022-09-17T10:14:16.080Z,53.80
2022-09-17T10:16:43.846Z,55.20
2022-09-17T10:19:15.292Z,56.80
2022-09-17T10:21:44.684Z,55.90
2022-09-17T10:24:24.386Z,56.20
2022-09-17T10:26:52.901Z,56.80
2022-09-17T10:29:21.907Z,55.90
2022-09-17T10:31:51.704Z,55.40
2022-09-17T10:34:24.388Z,55.10
2022-09-17T10:36:55.341Z,55.00
2022-09-17T10:39:34.959Z,55.70
2022-09-17T10:42:04.135Z,56.60
2022-09-17T10:44:33.728Z,57.20
2022-09-17T10:47:07.991Z,57.50
2022-09-17T10:49:42.447Z,57.70
2022-09-17T10:52:19.096Z,56.90
2022-09-17T10:55:26.651Z,56.40
2022-09-17T10:58:12.572Z,56.00
2022-09-17T11:00:53.429Z,56.70
2022-09-17T11:03:43.101Z,57.90
2022-09-17T11:06:32.154Z,57.90
2022-09-17T11:09:08.975Z,57.40
2022-09-17T11:11:49.086Z,57.00
2022-09-17T11:14:31.163Z,55.90
2022-09-17T11:17:07.416Z,57.00
2022-09-17T11:19:46.729Z,57.70
2022-09-17T11:22:24.034Z,57.20
2022-09-17T11:25:09.740Z,56.80
2022-09-17T11:27:53.330Z,54.30
2022-09-17T11:30:23.122Z,55.20
2022-09-17T11:33:29.583Z,56.20
2022-09-17T11:36:00.973Z,55.80
2022-09-17T11:38:39.508Z,55.70
2022-09-17T11:41:13.252Z,55.30
2022-09-17T11:43:45.909Z,55.00
2022-09-17T11:46:19.778Z,54.30
2022-09-17T11:48:51.916Z,55.40
2022-09-17T11:51:31.816Z,55.20
2022-09-17T11:54:07.533Z,55.30
2022-09-17T11:56:42.384Z,54.60
2022-09-17T11:59:19.161Z,55.10
2022-09-17T12:01:51.993Z,54.80
2022-09-17T12:04:39.110Z,55.10
2022-09-17T12:07:16.173Z,53.80
2022-09-17T12:09:49.857Z,55.10
2022-09-17T12:12:47.616Z,53.70
2022-09-17T12:15:21.498Z,55.00
2022-09-17T12:18:14.335Z,55.10
2022-09-17T12:20:47.786Z,54.70
2022-09-17T12:23:23.107Z,54.00
2022-09-17T12:25:59.222Z,54.80
2022-09-17T12:28:36.245Z,54.80
2022-09-17T12:31:11.802Z,54.40
2022-09-17T12:33:47.245Z,54.40
2022-09-17T12:36:31.805Z,54.20
2022-09-17T12:39:26.378Z,53.10
2022-09-17T12:42:02.321Z,54.90
2022-09-17T12:44:48.161Z,54.60
2022-09-17T12:47:55.220Z,55.10
2022-09-17T12:50:35.053Z,55.20
2022-09-17T12:53:16.361Z,55.10
2022-09-17T12:56:03.072Z,55.00
2022-09-17T12:58:44.956Z,54.90
2022-09-17T13:01:20.762Z,55.00
2022-09-17T13:03:53.906Z,55.10
2022-09-17T13:06:57.116Z,55.10
2022-09-17T13:09:48.965Z,55.10
2022-09-17T13:12:31.198Z,55.00
2022-09-17T13:15:24.569Z,55.30
2022-09-17T13:18:13.237Z,55.50
2022-09-17T13:21:01.676Z,55.30
2022-09-17T13:23:37.057Z,55.70
2022-09-17T13:26:08.241Z,56.00
2022-09-17T13:28:46.734Z,55.50
2022-09-17T13:31:21.258Z,56.20
2022-09-17T13:33:55.476Z,56.80
2022-09-17T13:36:43.665Z,59.80
2022-09-17T13:39:32.962Z,58.80
2022-09-17T13:42:08.018Z,58.10
2022-09-17T13:44:37.592Z,57.30
2022-09-17T13:47:22.172Z,57.40
2022-09-17T13:49:56.093Z,56.90
2022-09-17T13:52:40.083Z,56.70
2022-09-17T13:55:08.844Z,56.70
2022-09-17T13:57:49.728Z,56.80
2022-09-17T14:00:53.043Z,56.70
2022-09-17T14:03:57.206Z,56.70
2022-09-17T14:06:54.813Z,56.80
2022-09-17T14:09:39.164Z,56.60
2022-09-17T14:12:41.101Z,57.10
2022-09-17T14:15:34.837Z,57.30
2022-09-17T14:18:04.117Z,57.30
2022-09-17T14:20:35.084Z,57.30
2022-09-17T14:23:05.120Z,57.40
2022-09-17T14:25:41.268Z,57.50
2022-09-17T14:28:16.078Z,57.60
2022-09-17T14:30:44.958Z,57.50
2022-09-17T14:33:18.640Z,57.50
2022-09-17T14:35:47.849Z,57.50
2022-09-17T14:38:21.868Z,57.40
2022-09-17T14:40:59.684Z,57.60
2022-09-17T14:43:39.180Z,57.50
2022-09-17T14:46:10.703Z,57.40
2022-09-17T14:48:38.713Z,57.70
2022-09-17T14:51:23.086Z,57.60
2022-09-17T14:54:11.906Z,57.80
2022-09-17T14:56:51.004Z,57.70
2022-09-17T14:59:24.691Z,57.60
2022-09-17T15:01:52.680Z,57.60
2022-09-17T15:04:24.106Z,57.80
2022-09-17T15:06:51.977Z,57.80
2022-09-17T15:09:24.795Z,57.40
2022-09-17T15:11:55.474Z,58.20
2022-09-17T15:14:27.127Z,57.60
2022-09-17T15:16:57.862Z,58.10
2022-09-17T15:19:31.150Z,57.90
2022-09-17T15:21:59.252Z,57.60
2022-09-17T15:24:41.359Z,57.40
2022-09-17T15:27:14.800Z,57.20
2022-09-17T15:29:45.498Z,57.10
2022-09-17T15:32:14.726Z,56.90
2022-09-17T15:34:42.669Z,57.00
2022-09-17T15:37:20.142Z,57.10
2022-09-17T15:39:55.550Z,56.90
2022-09-17T15:42:26.938Z,56.90
2022-09-17T15:45:07.650Z,56.90
2022-09-17T15:47:37.518Z,57.00
2022-09-17T15:50:13.818Z,56.90
2022-09-17T15:52:41.748Z,56.90
2022-09-17T15:55:30.236Z,57.00
2022-09-17T15:57:59.284Z,57.00
2022-09-17T16:00:27.577Z,57.00
2022-09-17T16:02:56.021Z,57.10
2022-09-17T16:05:55.624Z,56.90
2022-09-17T16:08:25.715Z,56.60
2022-09-17T16:10:54.890Z,56.50
2022-09-17T16:13:27.951Z,56.40
2022-09-17T16:15:56.858Z,56.40
2022-09-17T16:18:24.624Z,56.50
2022-09-17T16:20:52.418Z,56.40
2022-09-17T16:23:20.199Z,56.40
2022-09-17T16:25:48.059Z,56.50
2022-09-17T16:28:20.778Z,56.50
2022-09-17T16:30:50.159Z,56.50
2022-09-17T16:33:19.286Z,56.60
2022-09-17T16:35:47.074Z,56.70
2022-09-17T16:38:15.035Z,56.70
2022-09-17T16:40:43.833Z,56.70
2022-09-17T16:43:12.047Z,56.80
2022-09-17T16:45:41.184Z,56.90
2022-09-17T16:48:09.751Z,56.90
2022-09-17T16:50:41.285Z,57.00
2022-09-17T16:53:09.089Z,57.00
2022-09-17T16:55:37.548Z,53.90
2022-09-17T16:58:05.314Z,57.40
2022-09-17T17:00:33.257Z,58.70
2022-09-17T17:03:02.511Z,61.10
2022-09-17T17:05:31.123Z,62.30
2022-09-17T17:08:02.143Z,63.50
2022-09-17T17:10:32.406Z,64.30
2022-09-17T17:13:02.401Z,63.50
2022-09-17T17:15:30.263Z,62.40
2022-09-17T17:17:58.458Z,63.20
2022-09-17T17:20:27.629Z,62.20
2022-09-17T17:22:56.231Z,61.60
2022-09-17T17:25:24.550Z,61.90
2022-09-17T17:27:52.439Z,61.20
2022-09-17T17:30:20.305Z,61.60
2022-09-17T17:32:51.359Z,61.60
2022-09-17T17:35:19.739Z,61.70
2022-09-17T17:37:48.961Z,61.80
2022-09-17T17:40:16.923Z,61.90
2022-09-17T17:42:47.257Z,61.50
2022-09-17T17:45:15.770Z,61.80
2022-09-17T17:47:43.510Z,61.70
2022-09-17T17:50:11.452Z,61.10
2022-09-17T17:52:47.609Z,60.90
2022-09-17T17:55:21.137Z,62.00
2022-09-17T17:57:48.959Z,61.20
2022-09-17T18:00:25.504Z,61.00
2022-09-17T18:02:53.415Z,61.60
2022-09-17T18:05:21.907Z,61.60
2022-09-17T18:07:50.082Z,62.40
2022-09-17T18:10:19.721Z,61.80
2022-09-17T18:12:51.345Z,61.10
2022-09-17T18:15:21.170Z,61.70
2022-09-17T18:17:50.019Z,61.00
2022-09-17T18:20:18.213Z,60.90
2022-09-17T18:22:46.010Z,61.20
2022-09-17T18:25:13.754Z,61.10
2022-09-17T18:27:42.948Z,61.10
2022-09-17T18:30:14.400Z,61.20
2022-09-17T18:32:42.245Z,61.20
2022-09-17T18:35:11.879Z,61.30
2022-09-17T18:37:39.688Z,60.90
2022-09-17T18:40:08.345Z,61.40
2022-09-17T18:42:36.146Z,62.10
2022-09-17T18:45:06.245Z,62.40
2022-09-17T18:47:34.075Z,61.50
2022-09-17T18:50:01.865Z,62.20
2022-09-17T18:52:29.608Z,62.00
2022-09-17T18:54:57.320Z,62.40
2022-09-17T18:57:25.131Z,62.40
2022-09-17T18:59:52.920Z,62.60
2022-09-17T19:02:22.049Z,62.20
2022-09-17T19:04:49.869Z,62.50
2022-09-17T19:07:17.687Z,62.70
2022-09-17T19:09:45.897Z,63.20
2022-09-17T19:12:13.673Z,62.90
2022-09-17T19:14:41.441Z,63.10
2022-09-17T19:17:09.808Z,63.50
2022-09-17T19:19:38.957Z,63.10
2022-09-17T19:22:08.162Z,63.00
2022-09-17T19:24:36.081Z,63.10
2022-09-17T19:27:04.123Z,62.70
2022-09-17T19:29:32.041Z,63.20
2022-09-17T19:31:59.818Z,63.60
2022-09-17T19:34:27.594Z,63.40
2022-09-17T19:36:56.645Z,63.80
2022-09-17T19:39:24.453Z,63.80
2022-09-17T19:41:52.260Z,63.90
2022-09-17T19:44:20.272Z,64.10
2022-09-17T19:46:49.922Z,63.90
2022-09-17T19:49:17.781Z,64.00
2022-09-17T19:51:45.794Z,64.10
2022-09-17T19:54:15.006Z,64.00
2022-09-17T19:56:42.855Z,63.70
2022-09-17T19:59:10.613Z,64.60
2022-09-17T20:01:38.540Z,64.20
2022-09-17T20:04:06.927Z,64.70
2022-09-17T20:06:35.456Z,64.50
2022-09-17T20:09:03.593Z,64.40
2022-09-17T20:11:32.755Z,64.10
2022-09-17T20:14:03.094Z,65.40
2022-09-17T20:16:31.423Z,64.70
2022-09-17T20:18:59.661Z,64.40
2022-09-17T20:21:29.429Z,64.70
2022-09-17T20:23:58.606Z,64.00
2022-09-17T20:26:27.369Z,64.00
2022-09-17T20:28:56.649Z,62.90
2022-09-17T20:31:26.000Z,63.70
2022-09-17T20:33:55.103Z,64.20
2022-09-17T20:36:24.550Z,64.30
2022-09-17T20:41:42.092Z,63.30
2022-09-17T20:44:11.303Z,63.40
2022-09-17T20:46:39.155Z,64.20
2022-09-17T20:49:07.086Z,64.10
2022-09-17T20:51:35.073Z,64.40
2022-09-17T20:54:03.041Z,63.80
2022-09-17T20:56:33.116Z,63.60
2022-09-17T20:59:08.202Z,64.10
2022-09-17T21:01:38.190Z,63.70
2022-09-17T21:04:07.882Z,63.90
2022-09-17T21:06:40.136Z,64.00
2022-09-17T21:09:10.201Z,64.00
2022-09-17T21:11:38.022Z,64.10
2022-09-17T21:14:06.058Z,63.90
2022-09-17T21:16:34.015Z,64.10
2022-09-17T21:19:05.280Z,64.20
2022-09-17T21:21:34.390Z,64.00
2022-09-17T21:24:02.705Z,64.80
2022-09-17T21:26:31.331Z,64.70
2022-09-17T21:28:59.266Z,64.90
2022-09-17T21:31:32.354Z,64.90
2022-09-17T21:34:04.641Z,65.10
2022-09-17T21:36:34.501Z,64.90
2022-09-17T21:39:04.884Z,65.00
2022-09-17T21:41:33.043Z,64.70
2022-09-17T21:44:01.116Z,65.20
2022-09-17T21:46:30.553Z,64.80
2022-09-17T21:49:01.997Z,65.20
2022-09-17T21:51:33.928Z,65.40
2022-09-17T21:54:03.689Z,65.40
2022-09-17T21:56:32.785Z,66.00
2022-09-17T21:59:02.641Z,65.70
2022-09-17T22:01:32.626Z,66.20
2022-09-17T22:04:01.865Z,65.70
2022-09-17T22:06:32.387Z,65.70
2022-09-17T22:09:03.391Z,65.60
2022-09-17T22:11:33.036Z,65.70
2022-09-17T22:14:04.822Z,65.70
2022-09-17T22:16:35.784Z,64.80
2022-09-17T22:19:04.861Z,65.60
2022-09-17T22:21:36.198Z,66.00
2022-09-17T22:24:05.753Z,65.60
2022-09-17T22:26:36.563Z,65.80
2022-09-17T22:29:06.360Z,65.70
2022-09-17T22:31:34.801Z,65.80
2022-09-17T22:34:02.997Z,65.80
2022-09-17T22:36:31.034Z,65.90
2022-09-17T22:39:00.317Z,65.40
2022-09-17T22:41:29.789Z,66.50
2022-09-17T22:44:00.062Z,66.50
2022-09-17T22:46:29.524Z,66.50
2022-09-17T22:48:57.684Z,66.80
2022-09-17T22:51:26.272Z,66.80
2022-09-17T22:53:54.178Z,67.00
2022-09-17T22:56:24.150Z,67.20
2022-09-17T22:58:52.504Z,67.20
2022-09-17T23:01:23.123Z,67.70
2022-09-17T23:03:53.108Z,67.00
2022-09-17T23:06:22.514Z,67.40
2022-09-17T23:08:50.855Z,66.60
2022-09-17T23:11:20.379Z,66.90
2022-09-17T23:13:49.809Z,67.20
2022-09-17T23:16:18.681Z,67.40
2022-09-17T23:18:47.078Z,67.60
2022-09-17T23:21:16.679Z,67.70
2022-09-17T23:23:46.397Z,67.40
2022-09-17T23:26:16.601Z,67.10
2022-09-17T23:28:44.415Z,67.70
2022-09-17T23:31:15.919Z,67.90
2022-09-17T23:33:44.770Z,67.70
2022-09-17T23:36:14.397Z,67.40
2022-09-17T23:38:43.697Z,67.30
2022-09-17T23:41:13.598Z,67.80
2022-09-17T23:43:41.768Z,67.40
2022-09-17T23:46:09.688Z,67.00
2022-09-17T23:48:39.290Z,67.40
2022-09-17T23:51:07.709Z,67.50
2022-09-17T23:53:36.844Z,67.20
2022-09-17T23:56:05.919Z,67.40
2022-09-17T23:58:34.325Z,67.50
